Time;durP1;ratioP1;P1;durP2;ratioP2;P2;SDS_P1;SDS_P2;PMS_P1;PMS_P2;Temp;Humidity;BMP_temperature;BMP_pressure;BME280_temperature;BME280_humidity;BME280_pressure;Samples;Min_cycle;Max_cycle;Signal;HPM_P1;HPM_P2
2021/06/16 00:01:55;;;;;;;0.15;0.00;;;26.20;48.80;;;;;;4976000;28;20051;-85
2021/06/16 00:04:21;;;;;;;2.15;0.10;;;26.20;48.90;;;;;;4989250;28;20019;-87
2021/06/16 00:06:49;;;;;;;0.63;0.25;;;26.20;49.00;;;;;;4989327;28;20034;-85
2021/06/16 00:09:15;;;;;;;1.35;0.30;;;26.10;49.00;;;;;;4989092;28;20461;-83
2021/06/16 00:11:41;;;;;;;0.10;0.00;;;26.10;49.20;;;;;;4956939;28;20037;-85
2021/06/16 00:14:08;;;;;;;0.30;0.10;;;26.10;49.30;;;;;;4973051;28;20027;-86
2021/06/16 00:16:34;;;;;;;0.20;0.10;;;26.10;49.50;;;;;;4986806;28;20053;-86
2021/06/16 00:19:00;;;;;;;0.85;0.17;;;26.00;49.60;;;;;;4973033;28;20027;-86
2021/06/16 00:21:26;;;;;;;0.10;0.00;;;26.00;49.60;;;;;;4973044;28;20054;-86
2021/06/16 00:23:52;;;;;;;0.57;0.20;;;26.00;49.70;;;;;;4989156;28;20025;-86
2021/06/16 00:26:18;;;;;;;0.45;0.10;;;25.90;49.80;;;;;;4972796;28;20507;-86
2021/06/16 00:28:44;;;;;;;0.90;0.00;;;25.90;49.90;;;;;;4989660;28;20477;-86
2021/06/16 00:31:11;;;;;;;0.25;0.08;;;25.90;50.00;;;;;;4988065;28;20050;-86
2021/06/16 00:33:39;;;;;;;0.73;0.10;;;25.80;50.10;;;;;;4972805;28;20034;-86
2021/06/16 00:36:05;;;;;;;0.80;0.38;;;25.80;50.10;;;;;;4973870;28;20027;-86
2021/06/16 00:38:31;;;;;;;0.10;0.00;;;25.80;50.20;;;;;;4972758;28;20023;-85
2021/06/16 00:40:58;;;;;;;0.60;0.00;;;25.80;50.30;;;;;;4974202;28;20050;-86
2021/06/16 00:43:24;;;;;;;0.30;0.10;;;25.70;50.30;;;;;;4989254;28;20030;-83
2021/06/16 00:45:52;;;;;;;0.00;0.00;;;25.70;50.40;;;;;;4978072;28;20042;-86
2021/06/16 00:48:19;;;;;;;1.25;0.03;;;25.70;50.50;;;;;;4985873;28;20518;-86
2021/06/16 00:50:45;;;;;;;0.10;0.00;;;25.70;50.60;;;;;;4975438;28;20474;-86
2021/06/16 00:53:11;;;;;;;1.35;0.10;;;25.70;50.70;;;;;;4973746;28;20034;-84
2021/06/16 00:55:38;;;;;;;0.43;0.10;;;25.60;50.70;;;;;;5009715;28;20031;-86
2021/06/16 00:58:11;;;;;;;0.50;0.10;;;25.60;50.80;;;;;;5008994;28;20039;-85
2021/06/16 01:00:47;;;;;;;0.32;0.10;;;25.60;50.90;;;;;;4991693;28;20416;-86
2021/06/16 01:03:14;;;;;;;12.27;0.30;;;25.50;51.00;;;;;;4972103;28;20027;-84
2021/06/16 01:06:08;;;;;;;0.20;0.00;;;25.50;51.10;;;;;;4972267;28;20031;-86
2021/06/16 01:08:48;;;;;;;0.20;0.10;;;25.40;51.20;;;;;;4970345;28;20504;-86
2021/06/16 01:11:14;;;;;;;0.00;0.00;;;25.40;51.20;;;;;;4956304;28;20735;-85
2021/06/16 01:13:57;;;;;;;0.13;0.00;;;25.30;51.20;;;;;;4953597;28;20035;-86
2021/06/16 01:16:40;;;;;;;0.57;0.10;;;25.30;51.40;;;;;;4971392;28;20388;-85
2021/06/16 01:19:41;;;;;;;0.15;0.00;;;25.30;51.40;;;;;;4971874;28;20027;-85
2021/06/16 01:22:32;;;;;;;0.45;0.10;;;25.20;51.50;;;;;;4932400;29;20059;-86
2021/06/16 01:25:00;;;;;;;;;;;25.20;51.50;;;;;;4935348;29;20421;-86
2021/06/16 01:27:26;;;;;;;0.15;0.03;;;25.20;51.40;;;;;;4967708;28;19907;-86
2021/06/16 01:29:52;;;;;;;0.50;0.28;;;25.20;51.30;;;;;;4935359;29;20035;-85
2021/06/16 01:32:18;;;;;;;0.98;0.20;;;25.20;51.40;;;;;;4949767;28;20032;-86
2021/06/16 01:34:44;;;;;;;0.22;0.10;;;25.10;51.50;;;;;;4920281;29;20183;-84
2021/06/16 01:37:10;;;;;;;1.98;0.50;;;25.10;51.60;;;;;;4955717;28;20131;-86
2021/06/16 01:39:37;;;;;;;1.00;0.57;;;25.00;51.70;;;;;;4955791;28;20524;-87
2021/06/16 01:42:29;;;;;;;2.75;0.77;;;24.90;51.80;;;;;;4951489;29;20043;-84
2021/06/16 01:44:55;;;;;;;5.30;0.63;;;24.90;51.90;;;;;;4950161;28;20039;-86
2021/06/16 01:47:22;;;;;;;1.48;0.35;;;24.90;51.90;;;;;;4916255;29;20052;-86
2021/06/16 01:49:51;;;;;;;2.63;0.43;;;24.80;51.90;;;;;;4932962;29;20024;-85
2021/06/16 01:52:17;;;;;;;2.53;0.43;;;24.80;52.00;;;;;;4936162;29;20071;-86
2021/06/16 01:54:43;;;;;;;1.67;0.35;;;24.70;52.10;;;;;;4936489;29;20043;-86
2021/06/16 01:57:09;;;;;;;0.93;0.43;;;24.70;52.20;;;;;;4927253;29;20076;-86
2021/06/16 01:59:39;;;;;;;0.88;0.40;;;24.70;52.20;;;;;;4924707;29;20047;-84
2021/06/16 02:02:05;;;;;;;0.30;0.10;;;24.70;52.20;;;;;;4966562;28;20046;-85
2021/06/16 02:04:32;;;;;;;0.20;0.10;;;24.70;52.20;;;;;;4995276;28;20430;-86
2021/06/16 02:07:05;;;;;;;0.32;0.22;;;24.70;52.30;;;;;;4969773;28;20031;-86
2021/06/16 02:09:32;;;;;;;0.73;0.10;;;24.70;52.40;;;;;;4948747;28;20039;-85
2021/06/16 02:11:58;;;;;;;1.40;0.30;;;24.70;52.30;;;;;;4967074;28;20041;-86
2021/06/16 02:14:24;;;;;;;0.40;0.13;;;24.70;52.40;;;;;;4999456;28;20027;-83
2021/06/16 02:17:11;;;;;;;1.75;0.80;;;24.70;52.40;;;;;;4970989;28;20035;-86
2021/06/16 02:19:37;;;;;;;1.08;0.32;;;24.60;52.50;;;;;;4955880;28;20047;-84
2021/06/16 02:22:04;;;;;;;1.63;0.50;;;24.60;52.50;;;;;;4970537;28;20095;-82
2021/06/16 02:24:31;;;;;;;0.30;0.10;;;24.60;52.50;;;;;;4973244;28;20033;-86
2021/06/16 02:26:57;;;;;;;0.90;0.15;;;24.60;52.60;;;;;;4986411;28;20033;-86
2021/06/16 02:29:24;;;;;;;0.50;0.10;;;24.60;52.70;;;;;;4971181;28;20061;-83
2021/06/16 02:31:50;;;;;;;0.80;0.20;;;24.50;52.70;;;;;;4985635;28;20039;-86
2021/06/16 02:34:17;;;;;;;0.85;0.50;;;24.50;52.90;;;;;;4986469;28;20058;-85
2021/06/16 02:36:44;;;;;;;1.80;0.40;;;24.40;53.00;;;;;;4967798;28;20039;-85
2021/06/16 02:39:16;;;;;;;0.73;0.22;;;24.40;53.10;;;;;;4979231;28;20034;-86
2021/06/16 02:41:43;;;;;;;3.05;0.50;;;24.30;53.20;;;;;;4957537;28;20047;-86
2021/06/16 02:44:09;;;;;;;0.52;0.15;;;24.30;53.30;;;;;;4974872;28;20468;-85
2021/06/16 02:46:35;;;;;;;1.70;0.32;;;24.20;53.40;;;;;;4974628;28;20058;-86
2021/06/16 02:49:02;;;;;;;2.30;0.50;;;24.20;53.40;;;;;;4974709;28;20027;-87
2021/06/16 02:51:30;;;;;;;1.13;0.20;;;24.20;53.40;;;;;;4990887;28;20035;-86
2021/06/16 02:53:56;;;;;;;0.45;0.20;;;24.20;53.50;;;;;;4958758;28;20388;-86
2021/06/16 02:56:22;;;;;;;0.28;0.05;;;24.20;53.50;;;;;;4974245;28;20046;-86
2021/06/16 02:58:48;;;;;;;1.30;0.32;;;24.20;53.50;;;;;;4975027;28;20027;-86
2021/06/16 03:01:16;;;;;;;0.10;0.00;;;24.20;53.60;;;;;;4973928;28;20047;-86
2021/06/16 03:03:44;;;;;;;2.15;0.10;;;24.10;53.70;;;;;;4974460;28;20464;-86
2021/06/16 03:06:10;;;;;;;0.22;0.13;;;24.10;53.80;;;;;;4974232;28;20053;-86
2021/06/16 03:08:36;;;;;;;3.33;0.25;;;24.10;53.80;;;;;;4974338;28;20026;-86
2021/06/16 03:11:02;;;;;;;0.20;0.00;;;24.10;53.90;;;;;;4974166;28;20035;-86
2021/06/16 03:13:29;;;;;;;0.77;0.05;;;24.00;53.90;;;;;;4974661;28;20039;-86
2021/06/16 03:15:55;;;;;;;0.43;0.13;;;24.00;53.90;;;;;;4954505;28;20039;-86
2021/06/16 03:18:21;;;;;;;0.32;0.10;;;24.00;54.00;;;;;;4966497;28;20030;-86
2021/06/16 03:20:48;;;;;;;0.38;0.17;;;24.00;54.00;;;;;;4974110;28;20030;-86
2021/06/16 03:23:15;;;;;;;0.22;0.00;;;24.00;54.00;;;;;;4974226;28;20043;-86
2021/06/16 03:25:41;;;;;;;0.25;0.10;;;24.00;54.00;;;;;;4989803;28;20472;-86
2021/06/16 03:28:08;;;;;;;0.43;0.17;;;24.00;54.10;;;;;;4989696;28;20046;-86
2021/06/16 03:30:34;;;;;;;0.30;0.10;;;24.00;54.10;;;;;;4973307;28;20035;-87
2021/06/16 03:33:00;;;;;;;1.15;0.35;;;23.90;54.20;;;;;;4974016;28;20026;-86
2021/06/16 03:35:26;;;;;;;0.22;0.03;;;24.00;54.30;;;;;;4973824;28;20042;-86
2021/06/16 03:37:52;;;;;;;1.27;0.10;;;23.90;54.40;;;;;;4974383;28;20042;-86
2021/06/16 03:40:18;;;;;;;1.20;0.10;;;23.90;54.50;;;;;;4989961;28;20038;-86
2021/06/16 03:42:45;;;;;;;0.20;0.00;;;23.90;54.60;;;;;;4973752;28;20039;-86
2021/06/16 03:45:11;;;;;;;0.52;0.00;;;23.90;54.60;;;;;;4973964;28;20034;-85
2021/06/16 03:47:42;;;;;;;1.35;0.10;;;23.80;54.60;;;;;;4988956;28;20030;-86
2021/06/16 03:50:09;;;;;;;0.40;0.05;;;23.80;54.70;;;;;;4959370;28;20480;-83
2021/06/16 03:52:36;;;;;;;0.50;0.10;;;23.80;54.80;;;;;;4994363;28;20046;-86
2021/06/16 03:55:02;;;;;;;0.15;0.00;;;23.80;54.90;;;;;;4993405;28;20031;-85
2021/06/16 03:57:28;;;;;;;0.57;0.10;;;23.70;54.90;;;;;;4993978;28;20511;-87
2021/06/16 03:59:55;;;;;;;0.60;0.30;;;23.70;55.00;;;;;;5009840;28;20057;-86
2021/06/16 04:02:21;;;;;;;0.30;0.00;;;23.70;55.10;;;;;;4972961;28;20051;-85
2021/06/16 04:04:47;;;;;;;1.17;0.38;;;23.60;55.20;;;;;;4989925;28;20033;-84
2021/06/16 04:07:18;;;;;;;0.68;0.30;;;23.50;55.30;;;;;;4989354;28;20038;-85
2021/06/16 04:09:49;;;;;;;0.77;0.20;;;23.50;55.50;;;;;;4988727;28;20034;-86
2021/06/16 04:12:15;;;;;;;0.35;0.13;;;23.40;55.60;;;;;;4957373;28;20042;-85
2021/06/16 04:14:41;;;;;;;0.00;0.00;;;23.40;55.60;;;;;;4974328;28;20035;-86
2021/06/16 04:17:07;;;;;;;0.20;0.03;;;23.30;55.60;;;;;;4987520;28;20035;-86
2021/06/16 04:19:33;;;;;;;0.20;0.03;;;23.30;55.70;;;;;;4994028;28;20030;-85
2021/06/16 04:21:59;;;;;;;0.22;0.05;;;23.30;55.80;;;;;;4993392;28;20404;-86
2021/06/16 04:24:25;;;;;;;0.75;0.13;;;23.20;55.90;;;;;;4976918;28;20041;-85
2021/06/16 04:26:52;;;;;;;7.43;0.75;;;23.20;55.90;;;;;;4976778;28;20391;-84
2021/06/16 04:29:18;;;;;;;0.20;0.00;;;23.20;55.90;;;;;;4973471;28;20023;-86
2021/06/16 04:31:44;;;;;;;0.20;0.13;;;23.20;55.90;;;;;;4977403;28;20408;-86
2021/06/16 04:34:10;;;;;;;1.23;0.20;;;23.30;55.90;;;;;;4972647;28;20035;-86
2021/06/16 04:36:36;;;;;;;0.25;0.10;;;23.30;55.90;;;;;;4956843;28;20373;-84
2021/06/16 04:39:02;;;;;;;0.32;0.10;;;23.30;55.90;;;;;;4973171;28;20042;-86
2021/06/16 04:41:28;;;;;;;0.20;0.20;;;23.30;55.90;;;;;;4972782;28;20046;-86
2021/06/16 04:43:54;;;;;;;0.98;0.38;;;23.30;56.00;;;;;;4972968;28;20049;-83
2021/06/16 04:46:23;;;;;;;1.35;0.28;;;23.30;56.10;;;;;;4983869;28;20038;-85
2021/06/16 04:48:49;;;;;;;0.70;0.40;;;23.30;56.10;;;;;;4980774;28;20019;-86
2021/06/16 04:51:15;;;;;;;1.17;0.15;;;23.30;56.10;;;;;;4977978;28;20030;-86
2021/06/16 04:53:41;;;;;;;1.08;0.30;;;23.40;56.20;;;;;;4975647;28;20022;-86
2021/06/16 04:56:07;;;;;;;0.25;0.10;;;23.40;56.20;;;;;;4974351;28;20041;-85
2021/06/16 04:58:34;;;;;;;0.85;0.10;;;23.50;56.10;;;;;;5009596;28;20042;-85
2021/06/16 05:01:00;;;;;;;0.25;0.05;;;23.60;56.10;;;;;;4977192;28;20503;-85
2021/06/16 05:03:26;;;;;;;0.63;0.20;;;23.70;56.00;;;;;;4972370;28;20035;-85
2021/06/16 05:05:52;;;;;;;0.40;0.20;;;23.80;55.70;;;;;;4972244;28;20404;-83
2021/06/16 05:08:18;;;;;;;0.20;0.03;;;24.00;55.50;;;;;;4973174;28;20030;-85
2021/06/16 05:10:44;;;;;;;0.52;0.15;;;24.20;55.40;;;;;;4973886;28;20033;-86
2021/06/16 05:13:10;;;;;;;0.65;0.20;;;24.30;55.10;;;;;;4973279;28;20388;-86
2021/06/16 05:15:36;;;;;;;0.35;0.10;;;24.50;55.00;;;;;;4977475;28;20045;-84
2021/06/16 05:18:05;;;;;;;0.30;0.10;;;24.60;54.80;;;;;;4987684;28;20484;-85
2021/06/16 05:20:31;;;;;;;0.40;0.10;;;24.80;54.70;;;;;;4974228;28;20412;-86
2021/06/16 05:22:58;;;;;;;0.70;0.10;;;24.90;54.60;;;;;;4976294;28;20031;-85
2021/06/16 05:25:24;;;;;;;0.63;0.20;;;24.90;54.60;;;;;;4977764;28;20035;-85
2021/06/16 05:27:50;;;;;;;1.45;0.30;;;25.00;54.50;;;;;;4976494;28;20491;-85
2021/06/16 05:30:19;;;;;;;0.40;0.10;;;25.00;54.50;;;;;;4976888;28;20042;-86
2021/06/16 05:32:45;;;;;;;0.90;0.30;;;25.10;54.50;;;;;;4973326;28;20547;-84
2021/06/16 05:35:12;;;;;;;0.40;0.10;;;25.10;54.50;;;;;;4971594;28;20035;-82
2021/06/16 05:37:38;;;;;;;0.70;0.20;;;25.20;54.40;;;;;;4988675;28;20044;-85
2021/06/16 05:40:05;;;;;;;0.80;0.10;;;25.30;54.30;;;;;;4972069;28;20428;-84
2021/06/16 05:42:31;;;;;;;1.08;0.35;;;25.30;54.20;;;;;;4971611;28;20414;-86
2021/06/16 05:44:58;;;;;;;0.10;0.05;;;25.30;54.20;;;;;;4987802;28;20042;-85
2021/06/16 05:47:24;;;;;;;0.70;0.40;;;25.30;54.30;;;;;;4986431;28;20038;-83
2021/06/16 05:49:50;;;;;;;0.68;0.20;;;25.20;54.50;;;;;;5000215;28;20499;-85
2021/06/16 05:52:16;;;;;;;1.55;0.13;;;25.20;54.50;;;;;;4980357;28;20039;-85
2021/06/16 05:54:42;;;;;;;1.88;1.10;;;25.20;54.50;;;;;;4979829;28;20045;-86
2021/06/16 05:57:08;;;;;;;0.40;0.00;;;25.20;55.10;;;;;;4979983;28;20030;-85
2021/06/16 05:59:34;;;;;;;0.68;0.20;;;25.20;54.40;;;;;;4978134;28;20030;-85
2021/06/16 06:02:01;;;;;;;1.10;0.63;;;25.20;54.40;;;;;;4979267;28;20047;-85
2021/06/16 06:04:27;;;;;;;0.25;0.10;;;25.20;54.50;;;;;;4974926;28;20035;-85
2021/06/16 06:06:53;;;;;;;0.10;0.00;;;25.30;54.40;;;;;;4975398;28;20039;-84
2021/06/16 06:09:19;;;;;;;0.50;0.20;;;25.30;54.30;;;;;;4975491;28;20031;-85
2021/06/16 06:11:45;;;;;;;0.20;0.10;;;25.40;54.20;;;;;;4975405;28;20050;-85
2021/06/16 06:14:11;;;;;;;0.47;0.20;;;25.50;54.10;;;;;;4975415;28;20038;-85
2021/06/16 06:16:37;;;;;;;1.50;0.20;;;25.70;53.90;;;;;;4975334;28;20031;-86
2021/06/16 06:19:03;;;;;;;0.40;0.10;;;25.90;53.60;;;;;;4991085;28;20046;-86
2021/06/16 06:21:31;;;;;;;3.53;0.20;;;26.20;53.30;;;;;;4991194;28;20395;-86
2021/06/16 06:24:00;;;;;;;0.70;0.22;;;26.40;52.90;;;;;;4991320;28;20054;-84
2021/06/16 06:26:26;;;;;;;0.68;0.20;;;26.50;52.80;;;;;;4958087;28;20058;-84
2021/06/16 06:28:53;;;;;;;0.22;0.10;;;26.50;52.80;;;;;;4975752;28;20031;-84
2021/06/16 06:31:19;;;;;;;0.47;0.20;;;26.40;52.90;;;;;;4984658;28;20042;-85
2021/06/16 06:33:45;;;;;;;0.00;0.00;;;26.30;53.00;;;;;;4983515;28;20046;-86
2021/06/16 06:36:12;;;;;;;1.45;0.13;;;26.20;53.30;;;;;;4979237;28;20030;-84
2021/06/16 06:38:38;;;;;;;0.17;0.05;;;26.00;53.40;;;;;;4976881;28;20026;-85
2021/06/16 06:41:04;;;;;;;1.92;0.40;;;26.10;53.50;;;;;;4961655;28;20476;-86
2021/06/16 06:43:30;;;;;;;0.30;0.10;;;26.20;53.40;;;;;;5012019;28;20054;-86
2021/06/16 06:45:56;;;;;;;0.60;0.20;;;26.40;53.20;;;;;;5010835;28;20571;-86
2021/06/16 06:48:22;;;;;;;0.60;0.22;;;26.60;52.90;;;;;;4990540;28;20030;-86
2021/06/16 06:50:48;;;;;;;1.17;0.30;;;26.70;52.60;;;;;;4974862;28;20039;-85
2021/06/16 06:53:16;;;;;;;1.17;0.30;;;26.80;52.60;;;;;;4974853;28;20035;-85
2021/06/16 06:55:43;;;;;;;0.90;0.20;;;26.90;52.60;;;;;;4976296;28;20027;-86
2021/06/16 06:58:09;;;;;;;0.68;0.17;;;27.00;52.40;;;;;;4974407;28;20046;-86
2021/06/16 07:00:35;;;;;;;0.68;0.20;;;27.20;52.30;;;;;;4978139;28;20045;-85
2021/06/16 07:03:01;;;;;;;1.35;0.73;;;27.30;52.10;;;;;;4988759;28;20037;-85
2021/06/16 07:05:27;;;;;;;0.73;0.22;;;27.50;52.00;;;;;;4959052;28;20046;-85
2021/06/16 07:07:53;;;;;;;0.70;0.20;;;27.60;51.80;;;;;;4980192;28;20026;-86
2021/06/16 07:10:19;;;;;;;0.70;0.28;;;27.90;51.60;;;;;;4962316;28;20039;-86
2021/06/16 07:12:45;;;;;;;0.60;0.30;;;28.20;51.30;;;;;;4979817;28;20195;-86
2021/06/16 07:15:12;;;;;;;0.88;0.20;;;28.40;51.00;;;;;;4977770;28;20030;-86
2021/06/16 07:17:38;;;;;;;0.38;0.13;;;28.60;50.90;;;;;;4974023;28;20022;-86
2021/06/16 07:20:05;;;;;;;0.28;0.10;;;28.60;50.80;;;;;;4974206;28;20053;-86
2021/06/16 07:22:31;;;;;;;2.25;0.43;;;28.70;50.70;;;;;;4974518;28;20053;-86
2021/06/16 07:24:57;;;;;;;0.43;0.10;;;28.80;50.80;;;;;;4975266;28;20034;-86
2021/06/16 07:27:23;;;;;;;1.05;0.30;;;28.90;50.70;;;;;;4975164;28;20026;-86
2021/06/16 07:29:49;;;;;;;0.50;0.20;;;29.10;50.50;;;;;;4974133;28;20019;-86
2021/06/16 07:32:19;;;;;;;1.27;0.30;;;29.30;50.40;;;;;;4972192;28;20034;-86
2021/06/16 07:34:45;;;;;;;0.63;0.25;;;29.30;50.20;;;;;;4994507;28;20031;-86
2021/06/16 07:37:11;;;;;;;0.43;0.20;;;29.40;50.20;;;;;;4994196;28;20049;-85
2021/06/16 07:39:37;;;;;;;1.83;0.40;;;29.50;50.10;;;;;;5010731;28;20416;-87
2021/06/16 07:42:04;;;;;;;1.33;0.35;;;29.40;50.10;;;;;;4994165;28;20538;-86
2021/06/16 07:44:30;;;;;;;0.68;0.15;;;29.40;50.20;;;;;;4975329;28;20047;-87
2021/06/16 07:46:56;;;;;;;4.10;0.50;;;29.60;50.10;;;;;;4993037;28;20049;-86
2021/06/16 07:49:22;;;;;;;0.70;0.20;;;29.70;49.80;;;;;;4990017;28;20039;-86
2021/06/16 07:51:48;;;;;;;0.50;0.25;;;29.80;49.80;;;;;;4974628;28;20038;-85
2021/06/16 07:54:14;;;;;;;0.43;0.10;;;29.80;49.70;;;;;;4957518;28;20031;-86
2021/06/16 07:56:41;;;;;;;0.47;0.17;;;30.00;49.60;;;;;;4973544;28;20043;-86
2021/06/16 07:59:07;;;;;;;0.55;0.10;;;30.20;49.40;;;;;;4973610;28;20484;-86
2021/06/16 08:01:33;;;;;;;0.40;0.20;;;30.30;49.00;;;;;;4973059;28;20062;-85
2021/06/16 08:03:59;;;;;;;0.50;0.10;;;30.60;48.80;;;;;;4989445;28;20047;-87
2021/06/16 08:06:26;;;;;;;0.98;0.35;;;30.70;48.60;;;;;;4973232;28;20030;-87
2021/06/16 08:08:52;;;;;;;1.15;0.30;;;30.70;48.40;;;;;;4973335;28;20022;-87
2021/06/16 08:11:20;;;;;;;2.92;0.10;;;30.70;48.30;;;;;;4973252;28;20031;-87
2021/06/16 08:13:46;;;;;;;0.82;0.17;;;30.70;48.40;;;;;;4973096;28;20049;-85
2021/06/16 08:16:14;;;;;;;0.77;0.25;;;30.80;48.30;;;;;;4988338;28;20399;-86
2021/06/16 08:18:40;;;;;;;1.60;0.15;;;30.80;48.00;;;;;;4972921;28;20042;-86
2021/06/16 08:21:06;;;;;;;0.55;0.15;;;30.90;48.00;;;;;;4973173;28;20043;-84
2021/06/16 08:23:32;;;;;;;0.95;0.30;;;31.00;47.70;;;;;;4973027;28;20038;-87
2021/06/16 08:25:59;;;;;;;0.43;0.10;;;31.10;47.60;;;;;;4973070;28;20046;-86
2021/06/16 08:28:25;;;;;;;0.25;0.00;;;31.30;47.40;;;;;;4989372;28;20035;-87
2021/06/16 08:30:51;;;;;;;2.53;0.88;;;31.40;47.20;;;;;;4988231;28;20054;-86
2021/06/16 08:33:17;;;;;;;0.30;0.20;;;31.40;46.90;;;;;;4988934;28;20027;-87
2021/06/16 08:35:43;;;;;;;1.40;0.35;;;31.50;46.90;;;;;;4972875;28;20057;-86
2021/06/16 08:38:09;;;;;;;0.57;0.13;;;31.60;46.80;;;;;;4972831;28;20034;-86
2021/06/16 08:40:35;;;;;;;0.22;0.03;;;31.80;46.60;;;;;;4972558;28;20031;-86
2021/06/16 08:43:01;;;;;;;0.45;0.08;;;32.00;46.30;;;;;;4956562;28;20122;-84
2021/06/16 08:45:29;;;;;;;0.70;0.30;;;32.20;46.10;;;;;;4976246;28;20042;-87
2021/06/16 08:47:55;;;;;;;0.10;0.00;;;32.30;45.80;;;;;;4987829;28;20018;-87
2021/06/16 08:50:21;;;;;;;0.57;0.20;;;32.30;45.50;;;;;;4972814;28;20500;-87
2021/06/16 08:52:47;;;;;;;0.52;0.10;;;32.30;45.20;;;;;;4974490;28;20031;-87
2021/06/16 08:55:15;;;;;;;0.22;0.00;;;32.30;45.10;;;;;;4977046;28;20042;-86
2021/06/16 08:57:42;;;;;;;2.05;0.40;;;32.30;44.70;;;;;;4976734;28;20366;-86
2021/06/16 09:00:09;;;;;;;1.10;0.10;;;32.30;44.50;;;;;;4959781;28;20510;-87
2021/06/16 09:02:35;;;;;;;0.50;0.20;;;32.30;44.50;;;;;;4972204;28;20404;-86
2021/06/16 09:05:01;;;;;;;0.93;0.20;;;32.50;44.30;;;;;;4956633;28;20406;-86
2021/06/16 09:07:30;;;;;;;0.08;0.00;;;32.60;43.80;;;;;;4988187;28;20030;-87
2021/06/16 09:10:21;;;;;;;0.25;0.00;;;32.70;43.70;;;;;;4972345;28;20407;-88
2021/06/16 09:12:57;;;;;;;0.28;0.05;;;32.80;43.50;;;;;;4987965;28;20034;-87
2021/06/16 09:15:27;;;;;;;0.77;0.22;;;33.10;43.40;;;;;;4989785;28;20034;-87
2021/06/16 09:18:00;;;;;;;0.32;0.10;;;33.20;43.00;;;;;;4987362;28;20383;-86
2021/06/16 09:20:27;;;;;;;0.47;0.10;;;33.40;42.90;;;;;;4957256;28;20384;-86
2021/06/16 09:23:10;;;;;;;0.20;0.10;;;33.50;42.60;;;;;;4976607;28;20104;-85
2021/06/16 09:25:36;;;;;;;0.68;0.30;;;33.60;42.50;;;;;;4975074;28;20034;-88
2021/06/16 09:28:03;;;;;;;0.40;0.10;;;33.60;42.30;;;;;;4956932;28;20047;-88
2021/06/16 09:30:31;;;;;;;0.17;0.00;;;33.60;41.80;;;;;;4983713;28;20050;-85
2021/06/16 09:32:59;;;;;;;0.30;0.13;;;33.60;41.70;;;;;;4972044;28;20019;-87
2021/06/16 09:35:32;;;;;;;4.85;0.35;;;33.50;41.60;;;;;;4971866;28;20499;-88
2021/06/16 09:38:00;;;;;;;0.35;0.10;;;33.60;41.40;;;;;;4968925;28;20341;-87
2021/06/16 09:40:26;;;;;;;0.60;0.20;;;33.50;41.20;;;;;;4973545;28;20500;-87
2021/06/16 09:42:56;;;;;;;0.30;0.20;;;33.40;41.20;;;;;;4971454;28;20046;-85
2021/06/16 09:45:22;;;;;;;0.50;0.20;;;33.40;41.40;;;;;;4975094;28;20395;-87
2021/06/16 09:47:48;;;;;;;0.85;0.35;;;33.30;41.30;;;;;;4987163;28;20472;-87
2021/06/16 09:50:15;;;;;;;0.00;0.00;;;33.30;41.30;;;;;;4973064;28;20062;-87
2021/06/16 09:52:46;;;;;;;0.50;0.10;;;33.20;41.40;;;;;;4992693;28;20041;-88
2021/06/16 09:55:13;;;;;;;3.30;0.43;;;33.10;41.20;;;;;;4991611;28;20388;-87
2021/06/16 09:57:57;;;;;;;0.25;0.10;;;33.00;41.30;;;;;;4976777;28;20057;-86
2021/06/16 10:00:37;;;;;;;0.43;0.10;;;33.00;41.30;;;;;;4975573;28;20050;-87
2021/06/16 10:03:17;;;;;;;0.30;0.10;;;33.10;41.20;;;;;;4971682;28;20027;-86
2021/06/16 10:06:07;;;;;;;0.20;0.00;;;33.30;40.90;;;;;;4972888;28;20031;-87
2021/06/16 10:08:47;;;;;;;0.45;0.15;;;33.30;40.70;;;;;;4958767;28;20027;-86
2021/06/16 10:11:14;;;;;;;0.10;0.00;;;33.30;40.70;;;;;;4955410;28;20518;-85
2021/06/16 10:13:41;;;;;;;0.50;0.10;;;33.30;40.50;;;;;;4972160;28;20026;-87
2021/06/16 10:16:07;;;;;;;0.65;0.28;;;33.20;40.50;;;;;;4981062;28;20042;-87
2021/06/16 10:18:38;;;;;;;0.32;0.10;;;33.20;40.60;;;;;;4982012;28;20049;-86
2021/06/16 10:21:05;;;;;;;0.28;0.10;;;33.10;40.60;;;;;;4975822;28;20022;-87
2021/06/16 10:23:31;;;;;;;0.15;0.10;;;33.10;40.70;;;;;;4972139;28;20506;-87
2021/06/16 10:26:02;;;;;;;0.30;0.10;;;33.10;40.70;;;;;;4974742;28;20030;-86
2021/06/16 10:28:38;;;;;;;0.82;0.20;;;33.10;40.60;;;;;;5007429;28;20542;-87
2021/06/16 10:31:05;;;;;;;0.20;0.10;;;33.10;40.50;;;;;;4990465;28;20039;-87
2021/06/16 10:33:38;;;;;;;0.25;0.00;;;33.00;40.50;;;;;;4987492;28;20033;-86
2021/06/16 10:36:23;;;;;;;0.13;0.03;;;32.90;40.60;;;;;;4972849;28;20034;-87
2021/06/16 10:39:02;;;;;;;0.88;0.38;;;32.80;40.60;;;;;;4975148;28;20026;-87
2021/06/16 10:41:37;;;;;;;0.25;0.10;;;32.80;40.50;;;;;;4960936;28;20027;-87
2021/06/16 10:44:19;;;;;;;0.25;0.00;;;32.70;40.50;;;;;;4990949;28;20046;-86
2021/06/16 10:46:58;;;;;;;0.70;0.20;;;32.60;40.60;;;;;;4990164;28;20070;-87
2021/06/16 10:49:49;;;;;;;0.45;0.17;;;32.60;40.70;;;;;;4991153;28;20039;-87
2021/06/16 10:52:19;;;;;;;3.08;0.30;;;32.50;40.70;;;;;;4975846;28;20031;-86
2021/06/16 10:55:00;;;;;;;0.52;0.10;;;32.40;40.80;;;;;;4974265;28;20023;-87
2021/06/16 10:57:27;;;;;;;0.30;0.00;;;32.40;40.80;;;;;;4974866;28;20037;-86
2021/06/16 10:59:53;;;;;;;0.77;0.13;;;32.30;40.80;;;;;;4974629;28;20018;-86
2021/06/16 11:02:31;;;;;;;0.30;0.10;;;32.30;40.80;;;;;;4990346;28;20388;-87
2021/06/16 11:05:23;;;;;;;0.52;0.10;;;32.20;40.80;;;;;;4979283;28;20035;-87
2021/06/16 11:07:49;;;;;;;0.22;0.00;;;32.20;40.80;;;;;;5011493;28;20039;-85
2021/06/16 11:10:16;;;;;;;0.05;0.00;;;32.10;40.80;;;;;;4994555;28;20361;-87
2021/06/16 11:12:43;;;;;;;0.32;0.10;;;32.10;40.80;;;;;;5011112;28;20042;-87
2021/06/16 11:15:24;;;;;;;0.40;0.10;;;32.10;40.80;;;;;;4979063;28;20037;-87
2021/06/16 11:18:00;;;;;;;0.20;0.10;;;32.00;40.80;;;;;;4975426;28;20031;-87
2021/06/16 11:20:41;;;;;;;0.10;0.00;;;32.00;40.90;;;;;;4959155;28;20034;-87
2021/06/16 11:23:07;;;;;;;0.82;0.05;;;31.90;40.90;;;;;;4974595;28;20034;-86
2021/06/16 11:25:38;;;;;;;0.68;0.13;;;31.90;41.00;;;;;;4974131;28;20030;-85
2021/06/16 11:28:25;;;;;;;2.15;0.15;;;31.90;41.10;;;;;;4975087;28;20029;-82
2021/06/16 11:30:54;;;;;;;0.20;0.10;;;31.90;41.10;;;;;;4980611;28;20039;-87
2021/06/16 11:33:24;;;;;;;0.50;0.30;;;31.90;41.20;;;;;;4987416;28;20023;-87
2021/06/16 11:35:54;;;;;;;0.30;0.07;;;31.90;41.20;;;;;;4978360;28;20026;-87
2021/06/16 11:38:20;;;;;;;;;;;31.90;41.20;;;;;;4975310;28;20035;-86
2021/06/16 11:41:18;;;;;;;0.10;0.10;;;31.90;41.20;;;;;;4979920;28;20378;-87
2021/06/16 11:43:58;;;;;;;0.50;0.17;;;32.00;41.30;;;;;;4987395;28;20055;-86
2021/06/16 11:46:38;;;;;;;0.35;0.00;;;32.00;41.30;;;;;;4977342;28;20047;-87
2021/06/16 11:49:08;;;;;;;0.43;0.17;;;32.10;41.30;;;;;;4973021;28;20185;-87
2021/06/16 11:51:55;;;;;;;0.98;0.20;;;32.10;41.20;;;;;;4974654;28;20057;-87
2021/06/16 11:54:27;;;;;;;1.38;0.00;;;32.10;41.30;;;;;;4973366;28;20380;-85
2021/06/16 11:57:09;;;;;;;0.65;0.10;;;32.10;41.30;;;;;;4958077;28;20039;-87
2021/06/16 11:59:46;;;;;;;0.50;0.10;;;32.10;41.40;;;;;;4959388;28;20042;-87
2021/06/16 12:02:24;;;;;;;0.08;0.03;;;32.10;41.40;;;;;;4988180;28;20042;-87
2021/06/16 12:05:02;;;;;;;0.40;0.10;;;32.10;41.50;;;;;;4994424;28;20057;-87
2021/06/16 12:07:53;;;;;;;0.28;0.10;;;32.00;41.60;;;;;;4978966;28;20499;-88
2021/06/16 12:10:25;;;;;;;0.57;0.17;;;32.00;41.80;;;;;;4977723;28;20023;-88
2021/06/16 12:13:04;;;;;;;0.25;0.03;;;31.90;42.10;;;;;;4977402;28;20026;-87
2021/06/16 12:15:31;;;;;;;0.43;0.13;;;31.90;42.40;;;;;;4976968;28;20057;-87
2021/06/16 12:17:58;;;;;;;0.15;0.00;;;31.90;42.50;;;;;;4973245;28;20022;-88
2021/06/16 12:20:25;;;;;;;0.30;0.10;;;31.80;42.70;;;;;;4958143;28;20034;-87
2021/06/16 12:22:51;;;;;;;0.45;0.03;;;31.80;43.00;;;;;;4973295;28;20026;-87
2021/06/16 12:25:31;;;;;;;0.80;0.20;;;31.80;43.20;;;;;;4972755;28;20499;-88
2021/06/16 12:27:58;;;;;;;8.93;0.10;;;31.80;43.30;;;;;;4972887;28;20034;-86
2021/06/16 12:30:31;;;;;;;0.30;0.00;;;31.80;43.40;;;;;;4975303;28;20482;-86
2021/06/16 12:33:32;;;;;;;0.30;0.20;;;31.80;43.50;;;;;;4988184;28;20042;-88
2021/06/16 12:38:35;;;;;;;1.17;0.10;;;31.90;43.60;;;;;;4974261;28;20025;-87
2021/06/16 12:41:01;;;;;;;1.98;0.30;;;31.90;43.50;;;;;;4987004;28;20506;-86
2021/06/16 12:43:28;;;;;;;0.20;0.03;;;32.00;43.40;;;;;;5009603;28;20035;-87
2021/06/16 12:45:57;;;;;;;0.20;0.10;;;32.10;43.40;;;;;;5008494;28;20042;-86
2021/06/16 12:48:27;;;;;;;0.32;0.10;;;32.10;43.20;;;;;;4972554;28;20027;-85
2021/06/16 12:50:58;;;;;;;0.57;0.10;;;32.30;43.00;;;;;;4972482;28;20030;-87
2021/06/16 12:53:25;;;;;;;0.38;0.00;;;32.40;42.80;;;;;;4956794;28;20388;-85
2021/06/16 12:55:53;;;;;;;0.60;0.10;;;32.50;42.60;;;;;;4974379;28;20034;-86
2021/06/16 12:58:21;;;;;;;1.38;0.20;;;32.50;42.30;;;;;;4973480;28;20027;-86
2021/06/16 13:00:48;;;;;;;0.95;0.10;;;32.70;42.10;;;;;;4978136;28;20046;-86